sensor_id;sensor_type;location;lat;lon;timestamp;P1;durP1;ratioP1;P2;durP2;ratioP2
17658;SDS011;8948;51.534;8.262;2023-05-07T00:00:41;3.05;;;1.80;;
17658;SDS011;8948;51.534;8.262;2023-05-07T00:05:42;3.03;;;1.85;;
17658;SDS011;8948;51.534;8.262;2023-05-07T00:10:43;3.28;;;1.83;;
17658;SDS011;8948;51.534;8.262;2023-05-07T00:15:43;3.58;;;1.88;;
17658;SDS011;8948;51.534;8.262;2023-05-07T00:20:44;3.03;;;1.80;;
17658;SDS011;8948;51.534;8.262;2023-05-07T00:25:45;4.03;;;1.50;;
17658;SDS011;8948;51.534;8.262;2023-05-07T00:30:45;1.98;;;1.75;;
17658;SDS011;8948;51.534;8.262;2023-05-07T00:35:46;2.97;;;1.83;;
17658;SDS011;8948;51.534;8.262;2023-05-07T00:40:46;1.98;;;1.73;;
17658;SDS011;8948;51.534;8.262;2023-05-07T00:45:47;3.50;;;1.70;;
17658;SDS011;8948;51.534;8.262;2023-05-07T00:50:48;4.03;;;1.63;;
17658;SDS011;8948;51.534;8.262;2023-05-07T00:55:49;4.03;;;2.03;;
17658;SDS011;8948;51.534;8.262;2023-05-07T01:00:49;4.60;;;2.17;;
17658;SDS011;8948;51.534;8.262;2023-05-07T01:05:50;4.32;;;1.88;;
17658;SDS011;8948;51.534;8.262;2023-05-07T01:10:54;2.13;;;1.83;;
17658;SDS011;8948;51.534;8.262;2023-05-07T01:15:56;4.47;;;2.00;;
17658;SDS011;8948;51.534;8.262;2023-05-07T01:20:57;4.60;;;1.75;;
17658;SDS011;8948;51.534;8.262;2023-05-07T01:25:58;5.63;;;2.30;;
17658;SDS011;8948;51.534;8.262;2023-05-07T01:31:00;5.53;;;2.03;;
17658;SDS011;8948;51.534;8.262;2023-05-07T01:36:03;6.53;;;2.38;;
17658;SDS011;8948;51.534;8.262;2023-05-07T01:41:06;5.20;;;2.20;;
17658;SDS011;8948;51.534;8.262;2023-05-07T01:46:07;2.92;;;1.95;;
17658;SDS011;8948;51.534;8.262;2023-05-07T01:51:10;3.85;;;2.20;;
17658;SDS011;8948;51.534;8.262;2023-05-07T01:56:10;3.72;;;2.42;;
17658;SDS011;8948;51.534;8.262;2023-05-07T02:01:11;4.80;;;2.28;;
17658;SDS011;8948;51.534;8.262;2023-05-07T02:06:12;4.18;;;2.58;;
17658;SDS011;8948;51.534;8.262;2023-05-07T02:11:13;3.95;;;2.50;;
17658;SDS011;8948;51.534;8.262;2023-05-07T02:16:13;5.65;;;2.78;;
17658;SDS011;8948;51.534;8.262;2023-05-07T02:21:14;4.70;;;2.70;;
17658;SDS011;8948;51.534;8.262;2023-05-07T02:26:14;7.63;;;3.15;;
17658;SDS011;8948;51.534;8.262;2023-05-07T02:31:15;3.45;;;2.35;;
17658;SDS011;8948;51.534;8.262;2023-05-07T02:36:16;5.00;;;2.63;;
17658;SDS011;8948;51.534;8.262;2023-05-07T02:41:16;4.70;;;2.90;;
17658;SDS011;8948;51.534;8.262;2023-05-07T02:46:17;4.45;;;2.55;;
17658;SDS011;8948;51.534;8.262;2023-05-07T02:51:19;6.47;;;2.70;;
17658;SDS011;8948;51.534;8.262;2023-05-07T02:56:20;3.67;;;2.63;;
17658;SDS011;8948;51.534;8.262;2023-05-07T03:01:21;7.97;;;2.90;;
17658;SDS011;8948;51.534;8.262;2023-05-07T03:06:22;3.80;;;2.45;;
17658;SDS011;8948;51.534;8.262;2023-05-07T03:11:22;6.15;;;2.65;;
17658;SDS011;8948;51.534;8.262;2023-05-07T03:16:23;4.95;;;2.60;;
17658;SDS011;8948;51.534;8.262;2023-05-07T03:21:23;6.88;;;2.75;;
17658;SDS011;8948;51.534;8.262;2023-05-07T03:26:24;5.70;;;3.08;;
17658;SDS011;8948;51.534;8.262;2023-05-07T03:31:25;4.13;;;2.95;;
17658;SDS011;8948;51.534;8.262;2023-05-07T03:36:25;6.13;;;3.50;;
17658;SDS011;8948;51.534;8.262;2023-05-07T03:41:29;1.90;;;1.50;;
17658;SDS011;8948;51.534;8.262;2023-05-07T03:46:30;5.85;;;2.22;;
17658;SDS011;8948;51.534;8.262;2023-05-07T03:51:30;5.43;;;2.40;;
17658;SDS011;8948;51.534;8.262;2023-05-07T03:56:31;10.68;;;2.40;;
17658;SDS011;8948;51.534;8.262;2023-05-07T04:01:32;3.67;;;2.45;;
17658;SDS011;8948;51.534;8.262;2023-05-07T04:06:32;9.45;;;3.13;;
17658;SDS011;8948;51.534;8.262;2023-05-07T04:11:33;3.67;;;2.30;;
17658;SDS011;8948;51.534;8.262;2023-05-07T04:16:34;4.47;;;2.85;;
17658;SDS011;8948;51.534;8.262;2023-05-07T04:21:35;7.70;;;3.35;;
17658;SDS011;8948;51.534;8.262;2023-05-07T04:26:36;5.20;;;3.97;;
17658;SDS011;8948;51.534;8.262;2023-05-07T04:31:36;12.48;;;4.35;;
17658;SDS011;8948;51.534;8.262;2023-05-07T04:36:37;11.02;;;4.80;;
17658;SDS011;8948;51.534;8.262;2023-05-07T04:41:38;5.72;;;4.78;;
17658;SDS011;8948;51.534;8.262;2023-05-07T04:46:39;9.50;;;6.28;;
17658;SDS011;8948;51.534;8.262;2023-05-07T04:51:39;8.75;;;7.18;;
17658;SDS011;8948;51.534;8.262;2023-05-07T04:56:42;14.50;;;8.27;;
17658;SDS011;8948;51.534;8.262;2023-05-07T05:01:43;14.90;;;8.40;;
17658;SDS011;8948;51.534;8.262;2023-05-07T05:06:43;11.48;;;9.73;;
17658;SDS011;8948;51.534;8.262;2023-05-07T05:11:44;13.50;;;10.45;;
17658;SDS011;8948;51.534;8.262;2023-05-07T05:16:45;14.65;;;9.52;;
17658;SDS011;8948;51.534;8.262;2023-05-07T05:21:45;13.75;;;10.35;;
17658;SDS011;8948;51.534;8.262;2023-05-07T05:26:46;16.02;;;11.98;;
17658;SDS011;8948;51.534;8.262;2023-05-07T05:31:47;15.30;;;12.50;;
17658;SDS011;8948;51.534;8.262;2023-05-07T05:36:48;17.77;;;13.50;;
17658;SDS011;8948;51.534;8.262;2023-05-07T05:41:48;17.42;;;13.32;;
17658;SDS011;8948;51.534;8.262;2023-05-07T05:46:49;21.33;;;14.15;;
17658;SDS011;8948;51.534;8.262;2023-05-07T05:51:50;25.48;;;13.80;;
17658;SDS011;8948;51.534;8.262;2023-05-07T05:56:50;18.45;;;13.32;;
17658;SDS011;8948;51.534;8.262;2023-05-07T06:01:51;23.58;;;13.93;;
17658;SDS011;8948;51.534;8.262;2023-05-07T06:06:51;28.38;;;14.55;;
17658;SDS011;8948;51.534;8.262;2023-05-07T06:11:52;21.33;;;13.35;;
17658;SDS011;8948;51.534;8.262;2023-05-07T06:16:52;19.25;;;13.20;;
17658;SDS011;8948;51.534;8.262;2023-05-07T06:21:53;17.95;;;13.50;;
17658;SDS011;8948;51.534;8.262;2023-05-07T06:26:56;17.35;;;12.95;;
17658;SDS011;8948;51.534;8.262;2023-05-07T06:32:05;20.98;;;14.48;;
17658;SDS011;8948;51.534;8.262;2023-05-07T06:37:07;20.55;;;15.27;;
17658;SDS011;8948;51.534;8.262;2023-05-07T06:42:08;19.38;;;14.82;;
17658;SDS011;8948;51.534;8.262;2023-05-07T06:47:09;21.73;;;13.32;;
17658;SDS011;8948;51.534;8.262;2023-05-07T06:52:09;18.58;;;14.13;;
17658;SDS011;8948;51.534;8.262;2023-05-07T06:57:10;19.27;;;14.15;;
17658;SDS011;8948;51.534;8.262;2023-05-07T07:02:10;19.67;;;14.18;;
17658;SDS011;8948;51.534;8.262;2023-05-07T07:07:11;26.02;;;13.70;;
17658;SDS011;8948;51.534;8.262;2023-05-07T07:12:11;19.17;;;14.05;;
17658;SDS011;8948;51.534;8.262;2023-05-07T07:17:12;19.13;;;14.00;;
17658;SDS011;8948;51.534;8.262;2023-05-07T07:22:12;18.23;;;13.25;;
17658;SDS011;8948;51.534;8.262;2023-05-07T07:27:13;21.30;;;13.02;;
17658;SDS011;8948;51.534;8.262;2023-05-07T07:32:13;18.55;;;13.23;;
17658;SDS011;8948;51.534;8.262;2023-05-07T07:37:14;17.10;;;12.27;;
17658;SDS011;8948;51.534;8.262;2023-05-07T07:42:14;17.30;;;12.45;;
17658;SDS011;8948;51.534;8.262;2023-05-07T07:47:15;16.88;;;12.60;;
17658;SDS011;8948;51.534;8.262;2023-05-07T07:52:16;17.35;;;12.63;;
17658;SDS011;8948;51.534;8.262;2023-05-07T07:57:16;15.13;;;12.50;;
17658;SDS011;8948;51.534;8.262;2023-05-07T08:02:17;18.90;;;12.05;;
17658;SDS011;8948;51.534;8.262;2023-05-07T08:07:17;17.52;;;12.38;;
17658;SDS011;8948;51.534;8.262;2023-05-07T08:12:20;16.73;;;11.70;;
17658;SDS011;8948;51.534;8.262;2023-05-07T08:17:21;16.52;;;11.63;;
17658;SDS011;8948;51.534;8.262;2023-05-07T08:22:22;17.17;;;11.48;;
17658;SDS011;8948;51.534;8.262;2023-05-07T08:27:22;15.65;;;10.77;;
17658;SDS011;8948;51.534;8.262;2023-05-07T08:32:23;13.88;;;11.88;;
17658;SDS011;8948;51.534;8.262;2023-05-07T08:37:24;16.80;;;11.07;;
17658;SDS011;8948;51.534;8.262;2023-05-07T08:42:24;15.63;;;10.98;;
17658;SDS011;8948;51.534;8.262;2023-05-07T08:47:27;15.43;;;11.35;;
17658;SDS011;8948;51.534;8.262;2023-05-07T08:52:32;15.30;;;10.68;;
17658;SDS011;8948;51.534;8.262;2023-05-07T08:57:33;19.98;;;11.82;;
17658;SDS011;8948;51.534;8.262;2023-05-07T09:02:34;17.83;;;11.10;;
17658;SDS011;8948;51.534;8.262;2023-05-07T09:07:36;17.08;;;11.70;;
17658;SDS011;8948;51.534;8.262;2023-05-07T09:12:37;15.30;;;11.07;;
17658;SDS011;8948;51.534;8.262;2023-05-07T09:17:37;15.20;;;11.43;;
17658;SDS011;8948;51.534;8.262;2023-05-07T09:22:38;13.82;;;9.82;;
17658;SDS011;8948;51.534;8.262;2023-05-07T09:27:40;23.88;;;10.13;;
17658;SDS011;8948;51.534;8.262;2023-05-07T09:32:42;14.57;;;11.23;;
17658;SDS011;8948;51.534;8.262;2023-05-07T09:37:42;15.65;;;9.90;;
17658;SDS011;8948;51.534;8.262;2023-05-07T09:42:43;17.30;;;12.25;;
17658;SDS011;8948;51.534;8.262;2023-05-07T09:47:44;15.63;;;12.40;;
17658;SDS011;8948;51.534;8.262;2023-05-07T09:52:44;14.07;;;11.05;;
17658;SDS011;8948;51.534;8.262;2023-05-07T09:57:46;12.27;;;9.77;;
17658;SDS011;8948;51.534;8.262;2023-05-07T10:02:51;10.50;;;7.88;;
17658;SDS011;8948;51.534;8.262;2023-05-07T10:07:52;15.73;;;9.82;;
17658;SDS011;8948;51.534;8.262;2023-05-07T10:12:54;8.18;;;6.75;;
17658;SDS011;8948;51.534;8.262;2023-05-07T10:17:54;8.73;;;6.63;;
17658;SDS011;8948;51.534;8.262;2023-05-07T10:22:56;8.07;;;6.57;;
17658;SDS011;8948;51.534;8.262;2023-05-07T10:27:59;14.98;;;6.75;;
17658;SDS011;8948;51.534;8.262;2023-05-07T10:33:04;12.07;;;8.02;;
17658;SDS011;8948;51.534;8.262;2023-05-07T10:38:06;14.45;;;9.20;;
17658;SDS011;8948;51.534;8.262;2023-05-07T10:43:08;13.55;;;8.68;;
17658;SDS011;8948;51.534;8.262;2023-05-07T11:03:21;10.57;;;7.35;;
17658;SDS011;8948;51.534;8.262;2023-05-07T11:08:22;12.85;;;7.68;;
17658;SDS011;8948;51.534;8.262;2023-05-07T11:18:48;8.43;;;5.85;;
17658;SDS011;8948;51.534;8.262;2023-05-07T11:28:52;8.10;;;5.78;;
17658;SDS011;8948;51.534;8.262;2023-05-07T11:33:53;9.50;;;6.07;;
17658;SDS011;8948;51.534;8.262;2023-05-07T11:38:54;8.32;;;5.90;;
17658;SDS011;8948;51.534;8.262;2023-05-07T11:43:56;13.20;;;6.90;;
17658;SDS011;8948;51.534;8.262;2023-05-07T11:48:58;9.30;;;5.78;;
17658;SDS011;8948;51.534;8.262;2023-05-07T11:54:03;11.20;;;8.13;;
17658;SDS011;8948;51.534;8.262;2023-05-07T11:59:08;10.35;;;7.35;;
17658;SDS011;8948;51.534;8.262;2023-05-07T12:04:09;10.00;;;6.80;;
17658;SDS011;8948;51.534;8.262;2023-05-07T12:09:09;8.25;;;6.32;;
17658;SDS011;8948;51.534;8.262;2023-05-07T12:14:11;10.00;;;6.20;;
17658;SDS011;8948;51.534;8.262;2023-05-07T12:19:12;7.50;;;5.60;;
17658;SDS011;8948;51.534;8.262;2023-05-07T12:24:14;8.52;;;6.45;;
17658;SDS011;8948;51.534;8.262;2023-05-07T12:29:15;10.70;;;6.90;;
17658;SDS011;8948;51.534;8.262;2023-05-07T12:34:16;8.73;;;6.00;;
17658;SDS011;8948;51.534;8.262;2023-05-07T12:39:16;10.75;;;5.10;;
17658;SDS011;8948;51.534;8.262;2023-05-07T12:44:17;10.43;;;5.40;;
17658;SDS011;8948;51.534;8.262;2023-05-07T12:49:17;7.47;;;5.45;;
17658;SDS011;8948;51.534;8.262;2023-05-07T12:54:34;7.78;;;5.70;;
17658;SDS011;8948;51.534;8.262;2023-05-07T12:59:38;8.65;;;6.43;;
17658;SDS011;8948;51.534;8.262;2023-05-07T13:04:42;11.30;;;7.28;;
17658;SDS011;8948;51.534;8.262;2023-05-07T13:09:42;12.43;;;7.07;;
17658;SDS011;8948;51.534;8.262;2023-05-07T13:14:43;10.93;;;5.22;;
17658;SDS011;8948;51.534;8.262;2023-05-07T13:19:44;6.90;;;4.70;;
17658;SDS011;8948;51.534;8.262;2023-05-07T13:24:44;11.77;;;5.00;;
17658;SDS011;8948;51.534;8.262;2023-05-07T13:29:45;9.65;;;5.55;;
17658;SDS011;8948;51.534;8.262;2023-05-07T13:34:45;9.90;;;6.38;;
17658;SDS011;8948;51.534;8.262;2023-05-07T13:39:46;10.82;;;6.55;;
17658;SDS011;8948;51.534;8.262;2023-05-07T13:44:46;10.15;;;6.70;;
17658;SDS011;8948;51.534;8.262;2023-05-07T13:49:47;14.77;;;6.95;;
17658;SDS011;8948;51.534;8.262;2023-05-07T13:54:49;11.65;;;6.70;;
17658;SDS011;8948;51.534;8.262;2023-05-07T13:59:54;10.45;;;6.80;;
17658;SDS011;8948;51.534;8.262;2023-05-07T14:04:54;12.43;;;7.28;;
17658;SDS011;8948;51.534;8.262;2023-05-07T14:09:55;10.15;;;7.10;;
17658;SDS011;8948;51.534;8.262;2023-05-07T14:14:56;11.48;;;6.50;;
17658;SDS011;8948;51.534;8.262;2023-05-07T14:19:57;8.73;;;6.25;;
17658;SDS011;8948;51.534;8.262;2023-05-07T14:24:57;10.05;;;6.60;;
17658;SDS011;8948;51.534;8.262;2023-05-07T14:29:58;10.18;;;7.18;;
17658;SDS011;8948;51.534;8.262;2023-05-07T14:34:58;10.25;;;7.70;;
17658;SDS011;8948;51.534;8.262;2023-05-07T14:39:59;17.67;;;8.02;;
17658;SDS011;8948;51.534;8.262;2023-05-07T14:45:00;13.18;;;7.70;;
17658;SDS011;8948;51.534;8.262;2023-05-07T14:50:00;10.30;;;7.30;;
17658;SDS011;8948;51.534;8.262;2023-05-07T14:55:01;10.80;;;6.95;;
17658;SDS011;8948;51.534;8.262;2023-05-07T15:00:03;11.68;;;7.25;;
17658;SDS011;8948;51.534;8.262;2023-05-07T15:05:04;15.55;;;9.40;;
17658;SDS011;8948;51.534;8.262;2023-05-07T15:10:05;11.32;;;7.45;;
17658;SDS011;8948;51.534;8.262;2023-05-07T15:15:07;9.63;;;7.15;;
17658;SDS011;8948;51.534;8.262;2023-05-07T15:20:08;10.45;;;6.72;;
17658;SDS011;8948;51.534;8.262;2023-05-07T15:25:08;12.57;;;6.97;;
17658;SDS011;8948;51.534;8.262;2023-05-07T15:30:09;8.15;;;6.25;;
17658;SDS011;8948;51.534;8.262;2023-05-07T15:35:10;10.30;;;7.22;;
17658;SDS011;8948;51.534;8.262;2023-05-07T15:40:11;10.15;;;5.95;;
17658;SDS011;8948;51.534;8.262;2023-05-07T15:45:12;9.63;;;6.30;;
17658;SDS011;8948;51.534;8.262;2023-05-07T15:50:13;7.72;;;6.38;;
17658;SDS011;8948;51.534;8.262;2023-05-07T15:55:13;9.75;;;6.25;;
17658;SDS011;8948;51.534;8.262;2023-05-07T16:00:14;9.68;;;5.13;;
17658;SDS011;8948;51.534;8.262;2023-05-07T16:05:16;10.38;;;5.70;;
17658;SDS011;8948;51.534;8.262;2023-05-07T16:10:17;9.50;;;6.10;;
17658;SDS011;8948;51.534;8.262;2023-05-07T16:15:17;8.27;;;6.68;;
17658;SDS011;8948;51.534;8.262;2023-05-07T16:20:18;9.48;;;6.88;;
17658;SDS011;8948;51.534;8.262;2023-05-07T16:25:20;10.95;;;7.60;;
17658;SDS011;8948;51.534;8.262;2023-05-07T16:30:21;9.82;;;7.05;;
17658;SDS011;8948;51.534;8.262;2023-05-07T16:35:21;9.30;;;7.45;;
17658;SDS011;8948;51.534;8.262;2023-05-07T16:40:22;14.27;;;7.90;;
17658;SDS011;8948;51.534;8.262;2023-05-07T16:45:23;14.25;;;7.82;;
17658;SDS011;8948;51.534;8.262;2023-05-07T16:50:23;8.13;;;6.47;;
17658;SDS011;8948;51.534;8.262;2023-05-07T16:55:24;10.18;;;6.53;;
17658;SDS011;8948;51.534;8.262;2023-05-07T17:00:24;8.00;;;5.90;;
17658;SDS011;8948;51.534;8.262;2023-05-07T17:05:25;9.55;;;5.88;;
17658;SDS011;8948;51.534;8.262;2023-05-07T17:10:26;10.07;;;6.35;;
17658;SDS011;8948;51.534;8.262;2023-05-07T17:15:27;9.30;;;7.25;;
17658;SDS011;8948;51.534;8.262;2023-05-07T17:20:27;8.38;;;6.30;;
17658;SDS011;8948;51.534;8.262;2023-05-07T17:25:30;10.15;;;6.75;;
17658;SDS011;8948;51.534;8.262;2023-05-07T17:30:31;19.23;;;6.57;;
17658;SDS011;8948;51.534;8.262;2023-05-07T17:35:31;10.57;;;7.60;;
17658;SDS011;8948;51.534;8.262;2023-05-07T17:40:32;11.48;;;7.82;;
17658;SDS011;8948;51.534;8.262;2023-05-07T17:45:33;12.02;;;8.02;;
17658;SDS011;8948;51.534;8.262;2023-05-07T17:50:34;8.40;;;6.63;;
17658;SDS011;8948;51.534;8.262;2023-05-07T17:55:39;9.52;;;6.90;;
17658;SDS011;8948;51.534;8.262;2023-05-07T18:00:43;10.82;;;7.20;;
17658;SDS011;8948;51.534;8.262;2023-05-07T18:05:44;10.05;;;6.95;;
17658;SDS011;8948;51.534;8.262;2023-05-07T18:10:44;8.50;;;6.80;;
17658;SDS011;8948;51.534;8.262;2023-05-07T18:15:45;10.30;;;7.20;;
17658;SDS011;8948;51.534;8.262;2023-05-07T18:20:49;8.77;;;7.07;;
17658;SDS011;8948;51.534;8.262;2023-05-07T18:25:50;12.98;;;6.80;;
17658;SDS011;8948;51.534;8.262;2023-05-07T18:30:50;9.52;;;7.70;;
17658;SDS011;8948;51.534;8.262;2023-05-07T18:35:51;11.52;;;7.43;;
17658;SDS011;8948;51.534;8.262;2023-05-07T18:40:51;12.30;;;8.05;;
17658;SDS011;8948;51.534;8.262;2023-05-07T18:45:52;11.82;;;8.00;;
17658;SDS011;8948;51.534;8.262;2023-05-07T18:50:52;10.25;;;7.75;;
17658;SDS011;8948;51.534;8.262;2023-05-07T18:55:53;14.93;;;8.27;;
17658;SDS011;8948;51.534;8.262;2023-05-07T19:00:54;11.88;;;7.57;;
17658;SDS011;8948;51.534;8.262;2023-05-07T19:05:54;16.15;;;7.85;;
17658;SDS011;8948;51.534;8.262;2023-05-07T19:10:55;10.18;;;7.63;;
17658;SDS011;8948;51.534;8.262;2023-05-07T19:15:56;14.10;;;8.13;;
17658;SDS011;8948;51.534;8.262;2023-05-07T19:20:56;10.50;;;8.48;;
17658;SDS011;8948;51.534;8.262;2023-05-07T19:25:57;14.80;;;9.85;;
17658;SDS011;8948;51.534;8.262;2023-05-07T19:30:58;13.20;;;8.32;;
17658;SDS011;8948;51.534;8.262;2023-05-07T19:35:58;12.20;;;9.10;;
17658;SDS011;8948;51.534;8.262;2023-05-07T19:40:59;13.80;;;8.95;;
17658;SDS011;8948;51.534;8.262;2023-05-07T19:46:01;13.07;;;9.07;;
17658;SDS011;8948;51.534;8.262;2023-05-07T19:51:02;14.00;;;9.15;;
17658;SDS011;8948;51.534;8.262;2023-05-07T19:56:06;10.50;;;8.38;;
17658;SDS011;8948;51.534;8.262;2023-05-07T20:01:08;13.85;;;8.73;;
17658;SDS011;8948;51.534;8.262;2023-05-07T20:06:09;15.20;;;9.43;;
17658;SDS011;8948;51.534;8.262;2023-05-07T20:11:09;15.25;;;10.65;;
17658;SDS011;8948;51.534;8.262;2023-05-07T20:16:12;15.25;;;9.70;;
17658;SDS011;8948;51.534;8.262;2023-05-07T20:21:13;12.02;;;9.63;;
17658;SDS011;8948;51.534;8.262;2023-05-07T20:26:14;14.82;;;10.45;;
17658;SDS011;8948;51.534;8.262;2023-05-07T20:31:14;13.77;;;9.85;;
17658;SDS011;8948;51.534;8.262;2023-05-07T20:36:15;12.50;;;10.30;;
17658;SDS011;8948;51.534;8.262;2023-05-07T20:41:16;22.48;;;10.70;;
17658;SDS011;8948;51.534;8.262;2023-05-07T20:46:16;14.90;;;10.98;;
17658;SDS011;8948;51.534;8.262;2023-05-07T20:51:19;12.27;;;10.10;;
17658;SDS011;8948;51.534;8.262;2023-05-07T20:56:20;16.25;;;9.88;;
17658;SDS011;8948;51.534;8.262;2023-05-07T21:01:21;12.85;;;10.38;;
17658;SDS011;8948;51.534;8.262;2023-05-07T21:06:21;15.05;;;9.65;;
17658;SDS011;8948;51.534;8.262;2023-05-07T21:11:22;12.85;;;10.18;;
17658;SDS011;8948;51.534;8.262;2023-05-07T21:16:23;13.32;;;10.02;;
17658;SDS011;8948;51.534;8.262;2023-05-07T21:21:23;16.30;;;10.82;;
17658;SDS011;8948;51.534;8.262;2023-05-07T21:26:24;18.83;;;10.25;;
17658;SDS011;8948;51.534;8.262;2023-05-07T21:31:25;12.63;;;9.88;;
17658;SDS011;8948;51.534;8.262;2023-05-07T21:36:25;13.48;;;10.65;;
17658;SDS011;8948;51.534;8.262;2023-05-07T21:41:27;16.30;;;11.30;;
17658;SDS011;8948;51.534;8.262;2023-05-07T21:46:27;14.98;;;10.38;;
17658;SDS011;8948;51.534;8.262;2023-05-07T21:51:28;16.95;;;11.32;;
17658;SDS011;8948;51.534;8.262;2023-05-07T21:56:29;16.75;;;10.65;;
17658;SDS011;8948;51.534;8.262;2023-05-07T22:01:29;14.75;;;10.35;;
17658;SDS011;8948;51.534;8.262;2023-05-07T22:06:30;12.27;;;9.85;;
17658;SDS011;8948;51.534;8.262;2023-05-07T22:11:30;12.48;;;10.23;;
17658;SDS011;8948;51.534;8.262;2023-05-07T22:16:31;14.48;;;9.40;;
17658;SDS011;8948;51.534;8.262;2023-05-07T22:21:31;13.73;;;10.63;;
17658;SDS011;8948;51.534;8.262;2023-05-07T22:26:32;12.77;;;9.75;;
17658;SDS011;8948;51.534;8.262;2023-05-07T22:31:33;12.32;;;9.77;;
17658;SDS011;8948;51.534;8.262;2023-05-07T22:36:33;15.27;;;10.30;;
17658;SDS011;8948;51.534;8.262;2023-05-07T22:41:34;13.73;;;9.73;;
17658;SDS011;8948;51.534;8.262;2023-05-07T22:46:35;12.40;;;9.80;;
17658;SDS011;8948;51.534;8.262;2023-05-07T22:51:36;11.40;;;9.55;;
17658;SDS011;8948;51.534;8.262;2023-05-07T22:56:36;15.10;;;10.43;;
17658;SDS011;8948;51.534;8.262;2023-05-07T23:01:39;17.33;;;11.05;;
17658;SDS011;8948;51.534;8.262;2023-05-07T23:06:40;11.88;;;9.38;;
17658;SDS011;8948;51.534;8.262;2023-05-07T23:11:41;13.18;;;9.73;;
17658;SDS011;8948;51.534;8.262;2023-05-07T23:16:42;13.60;;;9.60;;
17658;SDS011;8948;51.534;8.262;2023-05-07T23:21:42;15.30;;;8.63;;
17658;SDS011;8948;51.534;8.262;2023-05-07T23:26:43;12.60;;;8.35;;
17658;SDS011;8948;51.534;8.262;2023-05-07T23:31:43;11.85;;;7.97;;
17658;SDS011;8948;51.534;8.262;2023-05-07T23:36:44;10.68;;;8.20;;
17658;SDS011;8948;51.534;8.262;2023-05-07T23:41:45;12.80;;;8.23;;
17658;SDS011;8948;51.534;8.262;2023-05-07T23:46:46;9.35;;;7.18;;
17658;SDS011;8948;51.534;8.262;2023-05-07T23:51:47;13.18;;;7.40;;
17658;SDS011;8948;51.534;8.262;2023-05-07T23:56:48;10.23;;;7.32;;
